Time;durP1;ratioP1;P1;durP2;ratioP2;P2;SDS_P1;SDS_P2;PMS_P1;PMS_P2;Temp;Humidity;BMP_temperature;BMP_pressure;BME280_temperature;BME280_humidity;BME280_pressure;Samples;Min_cycle;Max_cycle;Signal;HPM_P1;HPM_P2
2021/06/08 00:02:31;;;;;;;;;;;19.00;80.00;;;;;;4302972;33;20014;-79
2021/06/08 00:04:58;;;;;;;;;;;19.00;80.00;;;;;;4288981;33;45286;-80
2021/06/08 00:07:26;;;;;;;;;;;19.00;80.10;;;;;;4289183;33;44204;-80
2021/06/08 00:09:53;;;;;;;;;;;19.00;80.20;;;;;;4302147;33;36196;-81
2021/06/08 00:12:20;;;;;;;;;;;19.00;80.30;;;;;;4302295;33;41309;-80
2021/06/08 00:14:48;;;;;;;;;;;19.00;80.30;;;;;;4288745;33;44632;-80
2021/06/08 00:17:21;;;;;;;;;;;19.00;80.30;;;;;;4300997;33;20013;-80
2021/06/08 00:19:48;;;;;;;;;;;19.00;80.40;;;;;;4288982;33;31973;-80
2021/06/08 00:22:15;;;;;;;;;;;18.90;80.40;;;;;;4289440;33;20713;-80
2021/06/08 00:24:42;;;;;;;;;;;18.90;80.40;;;;;;4289766;33;20030;-80
2021/06/08 00:27:12;;;;;;;;;;;18.90;80.50;;;;;;4302683;33;20058;-80
2021/06/08 00:29:42;;;;;;;;;;;18.90;80.60;;;;;;4288409;33;44157;-80
2021/06/08 00:32:12;;;;;;;;;;;18.90;80.60;;;;;;4301793;33;43328;-80
2021/06/08 00:34:39;;;;;;;;;;;18.90;80.70;;;;;;4278055;33;20016;-80
2021/06/08 00:37:09;;;;;;;;;;;18.90;80.70;;;;;;4289618;33;20406;-80
2021/06/08 00:39:36;;;;;;;;;;;18.90;80.70;;;;;;4302881;33;20014;-80
2021/06/08 00:42:04;;;;;;;;;;;18.90;80.80;;;;;;4302817;33;20010;-80
2021/06/08 00:44:31;;;;;;;;;;;18.90;80.80;;;;;;4302056;33;20025;-80
2021/06/08 00:46:58;;;;;;;;;;;18.90;80.90;;;;;;4301415;33;37420;-80
2021/06/08 00:49:31;;;;;;;;;;;18.90;80.90;;;;;;4301802;33;25910;-80
2021/06/08 00:51:58;;;;;;;;;;;18.90;80.90;;;;;;4288597;33;43261;-80
2021/06/08 00:54:30;;;;;;;;;;;18.80;80.90;;;;;;4302785;33;20097;-80
2021/06/08 00:57:00;;;;;;;;;;;18.80;81.00;;;;;;4302671;33;20092;-80
2021/06/08 00:59:30;;;;;;;;;;;18.80;81.00;;;;;;4301545;33;43864;-80
2021/06/08 01:02:02;;;;;;;;;;;18.80;81.00;;;;;;4301368;33;43347;-79
2021/06/08 01:04:30;;;;;;;;;;;18.80;80.90;;;;;;4301610;33;42807;-80
2021/06/08 01:06:57;;;;;;;;;;;18.70;80.80;;;;;;4301357;33;42620;-80
2021/06/08 01:09:24;;;;;;;;;;;18.70;80.80;;;;;;4301394;33;42702;-79
2021/06/08 01:11:51;;;;;;;;;;;18.70;80.80;;;;;;4288634;33;38069;-80
2021/06/08 01:14:21;;;;;;;;;;;18.70;80.90;;;;;;4301478;33;44991;-79
2021/06/08 01:16:48;;;;;;;;;;;18.70;80.90;;;;;;4301482;33;44765;-80
2021/06/08 01:19:18;;;;;;;;;;;18.70;80.90;;;;;;4301309;33;42037;-81
2021/06/08 01:21:45;;;;;;;;;;;18.70;80.90;;;;;;4301606;33;43375;-81
2021/06/08 01:24:12;;;;;;;;;;;18.70;80.90;;;;;;4288635;33;36033;-81
2021/06/08 01:26:39;;;;;;;;;;;18.70;81.00;;;;;;4287988;33;42725;-82
2021/06/08 01:29:07;;;;;;;;;;;18.60;80.90;;;;;;4276405;33;27437;-82
2021/06/08 01:31:36;;;;;;;;;;;18.60;80.90;;;;;;4302213;33;20026;-82
2021/06/08 01:34:06;;;;;;;;;;;18.60;81.00;;;;;;4288843;33;43534;-82
2021/06/08 01:36:36;;;;;;;;;;;18.60;80.90;;;;;;4302310;33;20022;-83
2021/06/08 01:39:05;;;;;;;;;;;18.60;80.90;;;;;;4303541;33;20040;-82
2021/06/08 01:41:32;;;;;;;;;;;18.60;81.00;;;;;;4304473;33;30798;-82
2021/06/08 01:44:03;;;;;;;;;;;18.50;80.90;;;;;;4290691;33;45468;-82
2021/06/08 01:46:33;;;;;;;;;;;18.50;80.90;;;;;;4304689;33;26027;-82
2021/06/08 01:49:01;;;;;;;;;;;18.50;81.00;;;;;;4291196;33;44309;-82
2021/06/08 01:51:40;;;;;;;;;;;18.50;81.10;;;;;;4304402;33;27116;-82
2021/06/08 01:54:10;;;;;;;;;;;18.50;81.20;;;;;;4304813;33;25075;-82
2021/06/08 01:56:45;;;;;;;;;;;18.50;81.10;;;;;;4279843;33;20029;-82
2021/06/08 01:59:21;;;;;;;;;;;18.40;81.10;;;;;;4291813;33;20013;-82
2021/06/08 02:01:57;;;;;;;;;;;18.40;81.10;;;;;;4303850;33;24618;-82
2021/06/08 02:04:26;;;;;;;;;;;18.40;81.10;;;;;;4304595;33;21113;-82
2021/06/08 02:06:59;;;;;;;;;;;18.40;81.10;;;;;;4304666;33;20044;-82
2021/06/08 02:09:47;;;;;;;;;;;18.40;81.10;;;;;;4291283;33;20011;-82
2021/06/08 02:12:22;;;;;;;;;;;18.40;81.20;;;;;;4290837;33;26067;-81
2021/06/08 02:14:58;;;;;;;;;;;18.30;81.20;;;;;;4303570;33;41820;-82
2021/06/08 02:17:47;;;;;;;;;;;18.30;81.20;;;;;;4290512;33;36908;-82
2021/06/08 02:20:19;;;;;;;;;;;18.30;81.30;;;;;;4291029;33;44653;-81
2021/06/08 02:22:53;;;;;;;;;;;18.30;81.30;;;;;;4303861;33;37419;-82
2021/06/08 02:25:25;;;;;;;;;;;18.30;81.40;;;;;;4290558;33;38522;-81
2021/06/08 02:27:58;;;;;;;;;;;18.20;81.40;;;;;;4303573;33;43310;-82
2021/06/08 02:30:27;;;;;;;;;;;18.20;81.40;;;;;;4303519;33;45014;-81
2021/06/08 02:33:03;;;;;;;;;;;18.20;81.50;;;;;;4303544;33;44864;-81
2021/06/08 02:35:31;;;;;;;;;;;18.20;81.50;;;;;;4303465;33;44321;-82
2021/06/08 02:38:07;;;;;;;;;;;18.20;81.60;;;;;;4303326;33;43956;-82
2021/06/08 02:40:35;;;;;;;;;;;18.20;81.60;;;;;;4290849;33;22262;-82
2021/06/08 02:43:03;;;;;;;;;;;18.20;81.60;;;;;;4290025;33;42569;-82
2021/06/08 02:45:35;;;;;;;;;;;18.10;81.60;;;;;;4303627;33;34347;-81
2021/06/08 02:48:05;;;;;;;;;;;18.10;81.70;;;;;;4290479;33;31964;-81
2021/06/08 02:50:36;;;;;;;;;;;18.10;81.70;;;;;;4278005;33;43932;-81
2021/06/08 02:53:06;;;;;;;;;;;18.10;81.80;;;;;;4290604;33;32812;-81
2021/06/08 02:55:37;;;;;;;;;;;18.10;81.80;;;;;;4303480;33;38917;-81
2021/06/08 02:58:06;;;;;;;;;;;18.10;81.70;;;;;;4303343;33;40135;-81
2021/06/08 03:00:34;;;;;;;;;;;18.10;81.80;;;;;;4303062;33;44431;-81
2021/06/08 03:03:05;;;;;;;;;;;18.00;81.70;;;;;;4290827;33;20028;-81
2021/06/08 03:05:34;;;;;;;;;;;18.10;81.90;;;;;;4303072;33;44510;-81
2021/06/08 03:08:04;;;;;;;;;;;18.10;81.90;;;;;;4289701;33;43588;-81
2021/06/08 03:10:32;;;;;;;;;;;18.00;81.90;;;;;;4289413;33;43063;-81
2021/06/08 03:13:01;;;;;;;;;;;18.00;81.90;;;;;;4290538;33;22223;-81
2021/06/08 03:15:30;;;;;;;;;;;18.00;81.90;;;;;;4303444;33;20081;-81
2021/06/08 03:18:00;;;;;;;;;;;18.00;82.00;;;;;;4304197;33;20422;-81
2021/06/08 03:20:35;;;;;;;;;;;18.00;82.00;;;;;;4302642;33;42719;-81
2021/06/08 03:23:04;;;;;;;;;;;18.00;82.10;;;;;;4303064;33;36449;-81
2021/06/08 03:25:35;;;;;;;;;;;18.00;82.10;;;;;;4278253;33;24026;-81
2021/06/08 03:28:06;;;;;;;;;;;17.90;82.20;;;;;;4278443;33;20006;-81
2021/06/08 03:30:34;;;;;;;;;;;17.90;82.20;;;;;;4302904;33;39794;-81
2021/06/08 03:33:01;;;;;;;;;;;17.90;82.20;;;;;;4302180;33;42686;-81
2021/06/08 03:35:31;;;;;;;;;;;17.90;82.20;;;;;;4290576;33;20002;-81
2021/06/08 03:38:02;;;;;;;;;;;17.90;82.20;;;;;;4302049;33;43527;-81
2021/06/08 03:40:29;;;;;;;;;;;17.90;82.30;;;;;;4290233;33;27165;-81
2021/06/08 03:43:01;;;;;;;;;;;17.90;82.30;;;;;;4302003;33;43620;-81
2021/06/08 03:45:29;;;;;;;;;;;17.90;82.30;;;;;;4303359;33;20061;-81
2021/06/08 03:47:59;;;;;;;;;;;17.80;82.30;;;;;;4302293;33;44070;-81
2021/06/08 03:50:26;;;;;;;;;;;17.80;82.30;;;;;;4301931;33;42693;-81
2021/06/08 03:52:55;;;;;;;;;;;17.80;82.40;;;;;;4302258;33;43090;-80
2021/06/08 03:55:27;;;;;;;;;;;17.80;82.40;;;;;;4303045;33;20124;-80
2021/06/08 03:57:55;;;;;;;;;;;17.80;82.50;;;;;;4302347;33;45199;-81
2021/06/08 04:00:26;;;;;;;;;;;17.80;82.40;;;;;;4302990;33;22140;-80
2021/06/08 04:02:53;;;;;;;;;;;17.80;82.40;;;;;;4276359;33;35596;-81
2021/06/08 04:05:21;;;;;;;;;;;17.80;82.40;;;;;;4302144;33;44523;-81
2021/06/08 04:07:48;;;;;;;;;;;17.80;82.40;;;;;;4302920;33;20017;-80
2021/06/08 04:10:20;;;;;;;;;;;17.80;82.50;;;;;;4288499;33;43787;-81
2021/06/08 04:12:51;;;;;;;;;;;17.70;82.40;;;;;;4303354;33;20041;-80
2021/06/08 04:15:21;;;;;;;;;;;17.70;82.60;;;;;;4303195;33;20011;-80
2021/06/08 04:17:50;;;;;;;;;;;17.70;82.70;;;;;;4290151;33;20022;-80
2021/06/08 04:20:24;;;;;;;;;;;17.70;82.70;;;;;;4276593;33;44649;-80
2021/06/08 04:22:54;;;;;;;;;;;17.70;82.80;;;;;;4288601;33;43197;-81
2021/06/08 04:25:25;;;;;;;;;;;17.70;82.80;;;;;;4302222;33;44526;-80
2021/06/08 04:27:53;;;;;;;;;;;17.60;82.80;;;;;;4289098;33;44307;-80
2021/06/08 04:30:26;;;;;;;;;;;17.70;83.00;;;;;;4276281;33;45056;-81
2021/06/08 04:32:53;;;;;;;;;;;17.70;83.10;;;;;;4302183;33;39034;-80
2021/06/08 04:35:23;;;;;;;;;;;17.60;83.00;;;;;;4301277;33;45087;-80
2021/06/08 04:37:50;;;;;;;;;;;17.60;83.10;;;;;;4288157;33;44624;-80
2021/06/08 04:40:18;;;;;;;;;;;17.60;83.20;;;;;;4301525;33;43626;-80
2021/06/08 04:42:46;;;;;;;;;;;17.60;83.30;;;;;;4302505;33;20021;-80
2021/06/08 04:45:14;;;;;;;;;;;17.60;83.40;;;;;;4302553;33;20038;-81
2021/06/08 04:47:44;;;;;;;;;;;17.60;83.40;;;;;;4302959;33;20393;-81
2021/06/08 04:50:13;;;;;;;;;;;17.70;83.60;;;;;;4301703;33;43547;-80
2021/06/08 04:52:41;;;;;;;;;;;17.60;83.60;;;;;;4289050;33;20013;-80
2021/06/08 04:55:09;;;;;;;;;;;17.60;83.70;;;;;;4302259;33;24392;-80
2021/06/08 04:57:36;;;;;;;;;;;17.60;83.80;;;;;;4289318;33;20006;-80
2021/06/08 05:00:11;;;;;;;;;;;17.60;84.00;;;;;;4276668;33;33363;-80
2021/06/08 05:02:48;;;;;;;;;;;17.60;84.10;;;;;;4288471;33;44962;-81
2021/06/08 05:05:18;;;;;;;;;;;17.60;84.20;;;;;;4301650;33;42171;-80
2021/06/08 05:08:06;;;;;;;;;;;17.60;84.20;;;;;;4301898;33;28609;-81
2021/06/08 05:10:36;;;;;;;;;;;17.60;84.50;;;;;;4302535;33;21532;-80
2021/06/08 05:13:07;;;;;;;;;;;17.60;84.70;;;;;;4289395;33;20007;-80
2021/06/08 05:15:38;;;;;;;;;;;17.60;84.70;;;;;;4305522;33;20105;-80
2021/06/08 05:18:09;;;;;;;;;;;17.60;84.80;;;;;;4305464;33;20426;-81
2021/06/08 05:20:41;;;;;;;;;;;17.60;84.90;;;;;;4305204;33;20405;-81
2021/06/08 05:23:14;;;;;;;;;;;17.60;84.90;;;;;;4291602;33;20034;-80
2021/06/08 05:25:44;;;;;;;;;;;17.60;85.10;;;;;;4291946;33;20467;-80
2021/06/08 05:28:15;;;;;;;;;;;17.60;85.20;;;;;;4304422;33;44696;-80
2021/06/08 05:30:43;;;;;;;;;;;17.60;85.40;;;;;;4304266;33;44300;-80
2021/06/08 05:33:11;;;;;;;;;;;17.60;85.40;;;;;;4304757;33;28550;-80
2021/06/08 05:35:38;;;;;;;;;;;17.70;85.70;;;;;;4304146;33;37854;-80
2021/06/08 05:38:09;;;;;;;;;;;17.70;85.80;;;;;;4305251;33;20033;-80
2021/06/08 05:40:38;;;;;;;;;;;17.70;85.90;;;;;;4304208;33;43668;-80
2021/06/08 05:43:05;;;;;;;;;;;17.70;86.00;;;;;;4278647;33;44671;-80
2021/06/08 05:45:34;;;;;;;;;;;17.60;86.10;;;;;;4304207;33;42766;-81
2021/06/08 05:48:02;;;;;;;;;;;17.70;86.20;;;;;;4304045;33;43390;-80
2021/06/08 05:50:32;;;;;;;;;;;17.70;86.40;;;;;;4304202;33;44607;-80
2021/06/08 05:53:00;;;;;;;;;;;17.70;86.30;;;;;;4290633;33;45073;-80
2021/06/08 05:55:28;;;;;;;;;;;17.70;86.60;;;;;;4304218;33;40518;-80
2021/06/08 05:57:56;;;;;;;;;;;17.70;86.50;;;;;;4291598;33;19998;-80
2021/06/08 06:00:27;;;;;;;;;;;17.70;86.80;;;;;;4290863;33;25645;-81
2021/06/08 06:02:55;;;;;;;;;;;17.80;86.90;;;;;;4279737;33;20073;-81
2021/06/08 06:05:22;;;;;;;;;;;17.70;86.80;;;;;;4303495;33;43256;-80
2021/06/08 06:07:52;;;;;;;;;;;17.80;86.90;;;;;;4291360;33;20002;-80
2021/06/08 06:10:21;;;;;;;;;;;17.70;86.90;;;;;;4304127;33;27690;-80
2021/06/08 06:12:50;;;;;;;;;;;17.80;87.00;;;;;;4290157;33;43482;-80
2021/06/08 06:15:21;;;;;;;;;;;17.80;86.90;;;;;;4303448;33;42387;-80
2021/06/08 06:17:48;;;;;;;;;;;17.80;87.00;;;;;;4303821;33;36570;-80
2021/06/08 06:20:20;;;;;;;;;;;17.80;87.10;;;;;;4304790;33;20020;-80
2021/06/08 06:22:48;;;;;;;;;;;17.80;87.10;;;;;;4290858;33;44259;-81
2021/06/08 06:25:18;;;;;;;;;;;17.80;87.10;;;;;;4303523;33;20337;-80
2021/06/08 06:27:48;;;;;;;;;;;17.80;87.10;;;;;;4291339;33;20033;-81
2021/06/08 06:30:16;;;;;;;;;;;17.90;87.20;;;;;;4290307;33;42686;-81
2021/06/08 06:32:46;;;;;;;;;;;17.90;87.20;;;;;;4303644;33;43098;-81
2021/06/08 06:35:18;;;;;;;;;;;17.90;87.10;;;;;;4290388;33;44297;-80
2021/06/08 06:37:46;;;;;;;;;;;17.90;87.10;;;;;;4303557;33;42237;-81
2021/06/08 06:40:15;;;;;;;;;;;17.90;87.00;;;;;;4277991;33;42019;-80
2021/06/08 06:42:46;;;;;;;;;;;17.90;87.00;;;;;;4289875;33;44797;-80
2021/06/08 06:45:15;;;;;;;;;;;18.00;87.00;;;;;;4303366;33;45210;-80
2021/06/08 06:47:46;;;;;;;;;;;18.00;87.00;;;;;;4303739;33;20027;-81
2021/06/08 06:50:14;;;;;;;;;;;18.00;87.00;;;;;;4277717;33;45152;-80
2021/06/08 06:52:55;;;;;;;;;;;18.00;86.90;;;;;;4304382;33;20010;-81
2021/06/08 06:55:23;;;;;;;;;;;17.90;86.80;;;;;;4303498;33;40734;-80
2021/06/08 06:57:51;;;;;;;;;;;18.00;87.00;;;;;;4303002;33;44321;-80
2021/06/08 07:00:19;;;;;;;;;;;18.00;87.10;;;;;;4302847;33;43662;-80
2021/06/08 07:02:47;;;;;;;;;;;18.00;87.10;;;;;;4302812;33;43204;-81
2021/06/08 07:05:17;;;;;;;;;;;18.00;87.10;;;;;;4303501;33;27739;-80
2021/06/08 07:07:45;;;;;;;;;;;18.00;87.00;;;;;;4303032;33;41854;-80
2021/06/08 07:10:16;;;;;;;;;;;18.00;87.10;;;;;;4303385;33;26598;-80
2021/06/08 07:12:44;;;;;;;;;;;18.00;87.20;;;;;;4302979;33;44085;-80
2021/06/08 07:15:13;;;;;;;;;;;18.10;87.20;;;;;;4302998;33;40857;-81
2021/06/08 07:17:40;;;;;;;;;;;18.10;87.20;;;;;;4303051;33;37095;-80
2021/06/08 07:20:10;;;;;;;;;;;18.10;87.30;;;;;;4303114;33;44322;-81
2021/06/08 07:22:38;;;;;;;;;;;18.10;87.30;;;;;;4302313;33;43248;-81
2021/06/08 07:25:07;;;;;;;;;;;18.10;87.30;;;;;;4289621;33;43672;-80
2021/06/08 07:27:34;;;;;;;;;;;18.10;87.30;;;;;;4289540;33;43628;-81
2021/06/08 07:30:02;;;;;;;;;;;18.10;87.30;;;;;;4289496;33;43900;-81
2021/06/08 07:32:37;;;;;;;;;;;18.10;87.20;;;;;;4289121;33;44077;-81
2021/06/08 07:35:04;;;;;;;;;;;18.10;87.20;;;;;;4303775;33;20029;-81
2021/06/08 07:37:33;;;;;;;;;;;18.10;88.00;;;;;;4302980;33;25815;-81
2021/06/08 07:40:03;;;;;;;;;;;18.10;87.10;;;;;;4302914;33;27883;-81
2021/06/08 07:42:39;;;;;;;;;;;18.10;87.20;;;;;;4303181;33;20089;-81
2021/06/08 07:45:10;;;;;;;;;;;18.10;87.20;;;;;;4303133;33;20018;-81
2021/06/08 07:47:38;;;;;;;;;;;18.10;87.30;;;;;;4289805;33;20006;-80
2021/06/08 07:50:10;;;;;;;;;;;18.10;87.30;;;;;;4303498;33;20006;-80
2021/06/08 07:52:40;;;;;;;;;;;18.20;87.30;;;;;;4303059;33;20077;-81
2021/06/08 07:55:07;;;;;;;;;;;18.20;87.40;;;;;;4303573;33;20007;-80
2021/06/08 07:57:38;;;;;;;;;;;18.20;87.20;;;;;;4303272;33;20010;-80
2021/06/08 08:00:09;;;;;;;;;;;18.20;87.40;;;;;;4302767;33;24301;-80
2021/06/08 08:02:39;;;;;;;;;;;18.20;87.40;;;;;;4303080;33;20420;-80
2021/06/08 08:05:18;;;;;;;;;;;18.20;87.40;;;;;;4289955;33;20003;-80
2021/06/08 08:07:49;;;;;;;;;;;18.20;87.40;;;;;;4289755;33;29507;-80
2021/06/08 08:10:21;;;;;;;;;;;18.20;87.50;;;;;;4301199;33;20010;-80
2021/06/08 08:12:56;;;;;;;;;;;18.20;87.50;;;;;;4303303;33;20034;-80
2021/06/08 08:15:27;;;;;;;;;;;18.20;87.40;;;;;;4302818;33;20045;-81
2021/06/08 08:17:56;;;;;;;;;;;18.30;87.50;;;;;;4290373;33;20415;-80
2021/06/08 08:20:43;;;;;;;;;;;18.30;87.50;;;;;;4302606;33;20006;-80
2021/06/08 08:23:11;;;;;;;;;;;18.30;87.50;;;;;;4303142;33;20022;-80
2021/06/08 08:25:43;;;;;;;;;;;18.30;87.60;;;;;;4302539;33;20444;-80
2021/06/08 08:28:13;;;;;;;;;;;18.30;87.60;;;;;;4289724;33;20018;-80
2021/06/08 08:30:40;;;;;;;;;;;18.30;87.50;;;;;;4289212;33;20423;-80
2021/06/08 08:33:08;;;;;;;;;;;18.30;87.40;;;;;;4303272;33;20069;-80
2021/06/08 08:35:40;;;;;;;;;;;18.30;88.20;;;;;;4302806;33;20014;-80
2021/06/08 08:38:13;;;;;;;;;;;18.30;87.40;;;;;;4289812;33;28332;-80
2021/06/08 08:40:40;;;;;;;;;;;18.30;87.40;;;;;;4301244;33;45055;-80
2021/06/08 08:43:08;;;;;;;;;;;18.30;87.40;;;;;;4301838;33;41803;-80
2021/06/08 08:45:37;;;;;;;;;;;18.40;87.50;;;;;;4288540;33;43681;-80
2021/06/08 08:48:05;;;;;;;;;;;18.40;87.30;;;;;;4300801;33;44667;-80
2021/06/08 08:50:32;;;;;;;;;;;18.40;87.20;;;;;;4288555;33;44323;-81
2021/06/08 08:53:04;;;;;;;;;;;18.40;87.20;;;;;;4301407;33;43370;-80
2021/06/08 08:55:35;;;;;;;;;;;18.40;87.20;;;;;;4302952;33;20010;-80
2021/06/08 08:58:03;;;;;;;;;;;18.40;87.20;;;;;;4288655;33;44291;-80
2021/06/08 09:00:31;;;;;;;;;;;18.40;87.10;;;;;;4277465;33;20039;-80
2021/06/08 09:03:01;;;;;;;;;;;18.40;87.00;;;;;;4288209;33;43561;-80
2021/06/08 09:05:34;;;;;;;;;;;18.50;86.80;;;;;;4301554;33;44722;-80
2021/06/08 09:08:02;;;;;;;;;;;18.40;86.60;;;;;;4302292;33;21625;-81
2021/06/08 09:10:30;;;;;;;;;;;18.50;86.70;;;;;;4301447;33;44707;-80
2021/06/08 09:12:58;;;;;;;;;;;18.40;86.60;;;;;;4287930;33;43749;-80
2021/06/08 09:15:25;;;;;;;;;;;18.50;86.60;;;;;;4301482;33;44541;-80
2021/06/08 09:17:55;;;;;;;;;;;18.50;86.50;;;;;;4277304;33;20014;-80
2021/06/08 09:20:26;;;;;;;;;;;18.50;86.40;;;;;;4289533;33;20392;-80
2021/06/08 09:23:01;;;;;;;;;;;18.50;86.30;;;;;;4288496;33;38954;-80
2021/06/08 09:25:34;;;;;;;;;;;18.50;86.30;;;;;;4302350;33;20018;-80
2021/06/08 09:28:20;;;;;;;;;;;18.50;86.20;;;;;;4301569;33;27411;-80
2021/06/08 09:30:48;;;;;;;;;;;18.50;86.20;;;;;;4301750;33;37216;-80
2021/06/08 09:33:20;;;;;;;;;;;18.50;86.20;;;;;;4288268;33;44140;-80
2021/06/08 09:35:50;;;;;;;;;;;18.50;86.10;;;;;;4302143;33;20073;-80
2021/06/08 09:38:19;;;;;;;;;;;18.50;86.10;;;;;;4302149;33;20046;-80
2021/06/08 09:40:49;;;;;;;;;;;18.60;86.00;;;;;;4289041;33;20021;-80
2021/06/08 09:43:22;;;;;;;;;;;18.60;85.80;;;;;;4302013;33;26193;-80
2021/06/08 09:45:53;;;;;;;;;;;18.60;85.70;;;;;;4289244;33;20025;-80
2021/06/08 09:48:21;;;;;;;;;;;18.60;85.70;;;;;;4277560;33;20012;-80
2021/06/08 09:50:49;;;;;;;;;;;18.60;85.70;;;;;;4288982;33;20416;-80
2021/06/08 09:53:26;;;;;;;;;;;18.60;85.60;;;;;;4301882;33;20044;-79
2021/06/08 09:55:55;;;;;;;;;;;18.60;85.60;;;;;;4302019;33;20118;-80
2021/06/08 09:58:25;;;;;;;;;;;18.60;85.40;;;;;;4302054;33;20065;-80
2021/06/08 10:01:24;;;;;;;;;;;18.60;85.30;;;;;;4290653;33;20912;-80
2021/06/08 10:03:51;;;;;;;;;;;18.70;85.20;;;;;;4267344;33;24557;-80
2021/06/08 10:06:20;;;;;;;;;;;18.70;85.20;;;;;;4290593;33;20015;-80
2021/06/08 10:08:51;;;;;;;;;;;18.70;85.20;;;;;;4276463;33;43666;-79
2021/06/08 10:11:23;;;;;;;;;;;18.70;85.20;;;;;;4290651;33;20003;-80
2021/06/08 10:13:58;;;;;;;;;;;18.70;85.00;;;;;;4289515;33;42559;-80
2021/06/08 10:16:29;;;;;;;;;;;18.70;85.00;;;;;;4289864;33;34576;-79
2021/06/08 10:18:56;;;;;;;;;;;18.70;84.90;;;;;;4289368;33;38178;-79
2021/06/08 10:21:35;;;;;;;;;;;18.80;85.00;;;;;;4289277;33;44377;-79
2021/06/08 10:24:12;;;;;;;;;;;18.80;85.00;;;;;;4288934;33;44355;-79
2021/06/08 10:26:45;;;;;;;;;;;18.80;84.90;;;;;;4289141;33;41703;-80
2021/06/08 10:29:15;;;;;;;;;;;18.80;84.90;;;;;;4288959;33;43657;-79
2021/06/08 10:31:45;;;;;;;;;;;18.90;84.80;;;;;;4289298;33;36148;-79
2021/06/08 10:34:43;;;;;;;;;;;18.90;84.80;;;;;;4278527;33;45039;-79
2021/06/08 10:37:18;;;;;;;;;;;18.90;84.70;;;;;;4277037;33;20014;-80
2021/06/08 10:39:54;;;;;;;;;;;18.90;84.70;;;;;;4290093;33;20006;-80
2021/06/08 10:42:21;;;;;;;;;;;19.00;84.70;;;;;;4276822;33;20408;-80
2021/06/08 10:44:49;;;;;;;;;;;19.00;84.60;;;;;;4290090;33;20010;-79
2021/06/08 10:47:33;;;;;;;;;;;19.00;84.60;;;;;;4289942;33;20010;-79
2021/06/08 10:50:23;;;;;;;;;;;19.00;84.50;;;;;;4276152;33;43289;-79
2021/06/08 10:52:51;;;;;;;;;;;19.10;84.50;;;;;;4289707;33;20364;-79
2021/06/08 10:55:26;;;;;;;;;;;19.10;84.30;;;;;;4289509;33;20003;-79
2021/06/08 10:57:54;;;;;;;;;;;19.10;84.40;;;;;;4289993;33;20015;-79
2021/06/08 11:00:27;;;;;;;;;;;19.10;84.30;;;;;;4288715;33;43359;-79
2021/06/08 11:03:03;;;;;;;;;;;19.10;84.30;;;;;;4283162;33;46282;-79
2021/06/08 11:05:49;;;;;;;;;;;19.20;84.20;;;;;;4290351;33;24694;-79
2021/06/08 11:08:16;;;;;;;;;;;19.20;84.20;;;;;;4302878;33;43528;-78
2021/06/08 11:10:51;;;;;;;;;;;19.20;84.00;;;;;;4302733;33;42780;-79
2021/06/08 11:13:44;;;;;;;;;;;19.20;84.00;;;;;;4293640;33;20025;-79
2021/06/08 11:16:29;;;;;;;;;;;19.20;84.00;;;;;;4302946;33;44207;-79
2021/06/08 11:18:58;;;;;;;;;;;19.30;84.10;;;;;;4303156;33;43383;-79
2021/06/08 11:21:26;;;;;;;;;;;19.30;84.00;;;;;;4289660;33;43461;-79
2021/06/08 11:23:55;;;;;;;;;;;19.30;84.00;;;;;;4302394;33;41729;-79
2021/06/08 11:26:42;;;;;;;;;;;19.30;83.90;;;;;;4303722;33;20065;-79
2021/06/08 11:29:11;;;;;;;;;;;19.30;83.90;;;;;;4280398;33;20054;-80
2021/06/08 11:31:49;;;;;;;;;;;19.40;83.90;;;;;;4278666;33;20045;-79
2021/06/08 11:34:16;;;;;;;;;;;19.40;83.80;;;;;;4289067;33;44519;-79
2021/06/08 11:36:44;;;;;;;;;;;19.40;83.70;;;;;;4302131;33;43224;-80
2021/06/08 11:39:16;;;;;;;;;;;19.50;84.40;;;;;;4289117;33;43677;-79
2021/06/08 11:41:53;;;;;;;;;;;19.50;83.50;;;;;;4277552;33;29093;-80
2021/06/08 11:44:20;;;;;;;;;;;19.50;83.50;;;;;;4302790;33;20017;-79
2021/06/08 11:47:00;;;;;;;;;;;19.50;83.30;;;;;;4303451;33;20024;-80
2021/06/08 11:49:36;;;;;;;;;;;19.60;83.40;;;;;;4303311;33;20014;-80
2021/06/08 11:52:05;;;;;;;;;;;19.60;83.30;;;;;;4302447;33;44730;-80
2021/06/08 11:54:37;;;;;;;;;;;19.60;83.20;;;;;;4283135;33;43508;-79
2021/06/08 11:57:04;;;;;;;;;;;19.60;83.10;;;;;;4302439;33;44750;-80
2021/06/08 11:59:44;;;;;;;;;;;19.70;83.10;;;;;;4303564;33;20010;-80
2021/06/08 12:02:34;;;;;;;;;;;19.70;83.10;;;;;;4301937;33;43574;-79
2021/06/08 12:05:14;;;;;;;;;;;19.70;83.00;;;;;;4281260;33;42706;-79
2021/06/08 12:07:47;;;;;;;;;;;19.70;82.90;;;;;;4289648;33;23676;-79
2021/06/08 12:10:18;;;;;;;;;;;19.70;82.90;;;;;;4303508;33;20010;-79
2021/06/08 12:12:49;;;;;;;;;;;19.80;82.90;;;;;;4289878;33;20268;-79
2021/06/08 12:15:21;;;;;;;;;;;19.80;82.90;;;;;;4303590;33;20074;-79
2021/06/08 12:18:03;;;;;;;;;;;19.80;82.90;;;;;;4290441;33;20014;-79
2021/06/08 12:20:33;;;;;;;;;;;19.80;82.80;;;;;;4302961;33;20049;-79
2021/06/08 12:23:03;;;;;;;;;;;19.90;82.80;;;;;;4302080;33;25053;-79
2021/06/08 12:25:33;;;;;;;;;;;19.90;82.70;;;;;;4289522;33;20013;-79
2021/06/08 12:28:10;;;;;;;;;;;20.00;82.70;;;;;;4289310;33;20390;-78
2021/06/08 12:30:38;;;;;;;;;;;20.00;83.40;;;;;;4301821;33;42319;-78
2021/06/08 12:33:06;;;;;;;;;;;20.00;82.60;;;;;;4277862;33;19995;-78
2021/06/08 12:35:33;;;;;;;;;;;20.00;82.50;;;;;;4302575;33;20171;-78
2021/06/08 12:38:22;;;;;;;;;;;20.10;82.40;;;;;;4288807;33;44612;-79
2021/06/08 12:40:56;;;;;;;;;;;20.10;82.50;;;;;;4301820;33;43633;-78
2021/06/08 12:43:24;;;;;;;;;;;20.10;82.30;;;;;;4288751;33;43550;-78
2021/06/08 12:45:57;;;;;;;;;;;20.20;82.20;;;;;;4276221;33;45101;-79
2021/06/08 12:48:25;;;;;;;;;;;20.20;82.20;;;;;;4302208;33;43544;-78
2021/06/08 12:50:53;;;;;;;;;;;20.30;82.20;;;;;;4301560;33;44456;-78
2021/06/08 12:53:24;;;;;;;;;;;20.20;82.10;;;;;;4302450;33;20038;-79
2021/06/08 12:55:52;;;;;;;;;;;20.30;82.10;;;;;;4301895;33;44039;-79
2021/06/08 12:58:35;;;;;;;;;;;20.30;82.10;;;;;;4301676;33;43304;-79
2021/06/08 13:01:09;;;;;;;;;;;20.40;82.10;;;;;;4289820;33;33348;-79
2021/06/08 13:03:38;;;;;;;;;;;20.40;82.00;;;;;;4288188;33;44672;-79
2021/06/08 13:06:05;;;;;;;;;;;20.40;81.90;;;;;;4301183;33;42001;-79
2021/06/08 13:08:35;;;;;;;;;;;20.40;81.80;;;;;;4301109;33;44679;-79
2021/06/08 13:11:02;;;;;;;;;;;20.50;81.90;;;;;;4288487;33;44233;-78
2021/06/08 13:13:35;;;;;;;;;;;20.50;81.80;;;;;;4301708;33;34113;-79
2021/06/08 13:16:02;;;;;;;;;;;20.50;81.70;;;;;;4301857;33;44464;-79
2021/06/08 13:18:42;;;;;;;;;;;20.50;81.70;;;;;;4301018;33;44629;-78
2021/06/08 13:21:09;;;;;;;;;;;20.60;81.70;;;;;;4302750;33;20065;-79
2021/06/08 13:23:39;;;;;;;;;;;20.60;81.50;;;;;;4288295;33;44131;-76
2021/06/08 13:26:08;;;;;;;;;;;20.60;81.60;;;;;;4288175;33;41508;-83
2021/06/08 13:28:37;;;;;;;;;;;20.70;81.50;;;;;;4301146;33;20017;-84
2021/06/08 13:31:11;;;;;;;;;;;20.70;81.40;;;;;;4301093;33;20018;-85
2021/06/08 13:33:39;;;;;;;;;;;20.70;81.20;;;;;;4276679;33;27346;-84
2021/06/08 13:36:21;;;;;;;;;;;20.70;81.10;;;;;;4279090;33;42935;-84
2021/06/08 13:38:48;;;;;;;;;;;20.80;81.10;;;;;;4279843;33;22501;-84
2021/06/08 13:41:31;;;;;;;;;;;20.90;81.10;;;;;;4291655;33;20002;-84
2021/06/08 13:44:05;;;;;;;;;;;20.90;80.90;;;;;;4292155;33;20381;-84
2021/06/08 13:46:57;;;;;;;;;;;20.90;80.80;;;;;;4293242;33;44355;-84
2021/06/08 13:49:43;;;;;;;;;;;20.90;81.60;;;;;;4303846;33;44751;-83
2021/06/08 13:52:18;;;;;;;;;;;20.90;80.80;;;;;;4291298;33;40884;-83
2021/06/08 13:54:51;;;;;;;;;;;21.00;80.80;;;;;;4279308;33;33309;-84
2021/06/08 13:57:28;;;;;;;;;;;21.00;80.70;;;;;;4290932;33;44245;-83
2021/06/08 14:02:43;;;;;;;;;;;21.10;80.40;;;;;;4303837;33;36782;-83
2021/06/08 14:05:30;;;;;;;;;;;21.10;80.40;;;;;;4304138;33;20036;-83
2021/06/08 14:08:00;;;;;;;;;;;21.20;80.40;;;;;;4304670;33;20074;-83
2021/06/08 14:10:31;;;;;;;;;;;21.20;80.30;;;;;;4304820;33;20052;-83
2021/06/08 14:13:05;;;;;;;;;;;21.30;80.20;;;;;;4304928;33;20016;-83
2021/06/08 14:15:37;;;;;;;;;;;21.30;80.20;;;;;;4291597;33;20069;-83
2021/06/08 14:18:07;;;;;;;;;;;21.30;80.10;;;;;;4303913;33;22190;-83
2021/06/08 14:20:45;;;;;;;;;;;21.30;79.90;;;;;;4291710;33;20017;-84
2021/06/08 14:23:13;;;;;;;;;;;21.40;80.00;;;;;;4278971;33;32971;-84
2021/06/08 14:25:42;;;;;;;;;;;21.40;79.70;;;;;;4291495;33;20054;-84
2021/06/08 14:28:09;;;;;;;;;;;21.40;79.70;;;;;;4303579;33;43473;-84
2021/06/08 14:30:38;;;;;;;;;;;21.50;79.80;;;;;;4291484;33;19998;-84
2021/06/08 14:33:08;;;;;;;;;;;21.50;79.50;;;;;;4291036;33;21634;-84
2021/06/08 14:35:37;;;;;;;;;;;21.50;79.30;;;;;;4279137;33;20034;-84
2021/06/08 14:38:04;;;;;;;;;;;21.50;79.10;;;;;;4303710;33;36672;-84
2021/06/08 14:40:34;;;;;;;;;;;21.50;79.00;;;;;;4304763;33;20054;-84
2021/06/08 14:43:01;;;;;;;;;;;21.60;79.30;;;;;;4303743;33;31339;-84